Terminal Aerodrome Forecast
Issued by NWS Topeka, KS

Home | Current Version | Previous Version | Graphics & Text | Print | Product List | Glossary Off
Versions: 1 2 3 4 5 6 7 8 9 10 11 12 13 14 15 16 17 18 19

000
FTUS43 KTOP 180524
TAFTOP
TAF
KTOP 180524Z 1806/1906 23007KT P6SM BKN030
      TEMPO 1806/1808 BKN035
     FM180800 24004KT 5SM BR SCT035
     FM181400 23007KT P6SM SKC=

USA.gov is the U.S. government's official web portal to all federal, state and local government web resources and services.